createdAt,value
2019-05-12T00:02:51.463Z,22.40
2019-05-12T00:10:19.360Z,21.80
2019-05-12T00:12:48.540Z,21.30
2019-05-12T00:15:19.529Z,22.10
2019-05-12T00:20:18.549Z,22.10
2019-05-12T00:22:58.028Z,22.30
2019-05-12T00:27:54.184Z,21.30
2019-05-12T00:30:38.542Z,21.20
2019-05-12T00:38:09.035Z,21.60
2019-05-12T00:45:39.139Z,21.50
2019-05-12T00:48:09.687Z,21.90
2019-05-12T00:50:39.235Z,21.90
2019-05-12T00:55:38.042Z,22.10
2019-05-12T00:58:08.959Z,22.10
2019-05-12T01:03:09.094Z,21.90
2019-05-12T01:05:39.555Z,21.90
2019-05-12T01:08:09.004Z,21.80
2019-05-12T01:10:39.630Z,21.20
2019-05-12T01:13:09.282Z,21.90
2019-05-12T01:15:39.448Z,21.70
2019-05-12T01:18:09.843Z,21.00
2019-05-12T01:20:39.093Z,21.50
2019-05-12T01:23:08.820Z,21.90
2019-05-12T01:25:39.649Z,21.60
2019-05-12T01:28:09.021Z,21.60
2019-05-12T01:30:39.052Z,21.20
2019-05-12T01:33:08.542Z,21.00
2019-05-12T01:35:39.102Z,21.80
2019-05-12T01:38:08.996Z,22.10
2019-05-12T01:43:08.604Z,21.60
2019-05-12T01:45:38.376Z,21.80
2019-05-12T01:48:09.100Z,20.80
2019-05-12T01:50:39.269Z,22.00
2019-05-12T01:53:08.770Z,21.70
2019-05-12T01:58:09.162Z,21.20
2019-05-12T02:00:38.752Z,21.40
2019-05-12T02:03:09.110Z,20.80
2019-05-12T02:05:39.808Z,21.70
2019-05-12T02:10:39.392Z,21.70
2019-05-12T02:13:08.144Z,21.60
2019-05-12T02:15:38.387Z,21.70
2019-05-12T02:18:09.045Z,21.30
2019-05-12T02:20:38.315Z,21.50
2019-05-12T02:23:09.006Z,20.70
2019-05-12T02:25:38.408Z,21.40
2019-05-12T02:28:09.326Z,20.60
2019-05-12T02:30:41.193Z,21.40
2019-05-12T02:45:35.930Z,21.60
2019-05-12T02:48:06.103Z,21.30
2019-05-12T02:58:06.797Z,21.00
2019-05-12T03:10:36.883Z,20.50
2019-05-12T03:15:36.470Z,20.70
2019-05-12T03:23:06.900Z,20.90
2019-05-12T03:25:37.332Z,20.90
2019-05-12T03:28:08.492Z,21.10
2019-05-12T03:33:10.487Z,20.20
2019-05-12T03:43:06.065Z,21.20
2019-05-12T03:45:36.489Z,21.10
2019-05-12T03:50:36.369Z,20.80
2019-05-12T03:53:10.538Z,20.40
2019-05-12T04:08:06.578Z,21.00
2019-05-12T04:13:06.599Z,20.60
2019-05-12T04:30:35.473Z,21.00
2019-05-12T04:35:35.813Z,20.00
2019-05-12T04:38:05.488Z,19.90
2019-05-12T05:03:05.273Z,19.80
2019-05-12T05:18:06.601Z,20.60
2019-05-12T05:23:04.488Z,20.50
2019-05-12T05:25:35.752Z,20.40
2019-05-12T05:28:05.472Z,20.20
2019-05-12T05:30:34.417Z,19.90
2019-05-12T05:33:05.192Z,19.90
2019-05-12T05:35:39.682Z,20.70
2019-05-12T05:40:35.660Z,20.60
2019-05-12T05:48:09.696Z,20.40
2019-05-12T05:58:10.024Z,20.40
2019-05-12T06:03:05.581Z,20.30
2019-05-12T06:05:38.008Z,20.00
2019-05-12T06:15:35.763Z,20.20
2019-05-12T06:18:05.633Z,20.40
2019-05-12T06:20:37.941Z,20.40
2019-05-12T06:25:45.603Z,20.20
2019-05-12T06:40:40.961Z,20.30
2019-05-12T06:43:04.915Z,20.10
2019-05-12T06:45:41.799Z,20.20
2019-05-12T06:55:39.224Z,19.80
2019-05-12T07:03:06.721Z,20.30
2019-05-12T07:13:05.490Z,19.70
2019-05-12T07:18:06.727Z,20.30
2019-05-12T07:28:07.544Z,20.00
2019-05-12T07:33:04.845Z,19.60
2019-05-12T07:38:05.066Z,19.70
2019-05-12T07:40:37.919Z,20.40
2019-05-12T07:48:08.204Z,20.20
2019-05-12T08:13:04.351Z,19.70
2019-05-12T08:15:34.230Z,20.20
2019-05-12T08:18:07.886Z,20.30
2019-05-12T08:20:34.673Z,19.70
2019-05-12T08:23:10.208Z,19.90
2019-05-12T08:25:35.692Z,18.50
2019-05-12T08:28:14.911Z,19.50
2019-05-12T08:30:47.421Z,19.70
2019-05-12T08:35:38.819Z,20.30
2019-05-12T08:40:46.388Z,20.20
2019-05-12T08:43:10.387Z,19.50
2019-05-12T08:45:37.939Z,20.00
2019-05-12T08:53:05.077Z,20.10
2019-05-12T08:55:35.817Z,19.90
2019-05-12T08:58:04.864Z,19.40
2019-05-12T09:03:05.125Z,20.00
2019-05-12T09:10:34.277Z,20.40
2019-05-12T09:13:04.173Z,19.80
2019-05-12T09:15:34.587Z,20.00
2019-05-12T09:25:39.036Z,19.90
2019-05-12T09:28:04.760Z,20.30
2019-05-12T09:33:04.100Z,20.30
2019-05-12T09:35:39.008Z,20.10
2019-05-12T09:38:05.938Z,20.30
2019-05-12T09:43:10.433Z,20.30
2019-05-12T09:48:09.209Z,19.90
2019-05-12T09:53:09.310Z,19.40
2019-05-12T09:55:34.891Z,19.50
2019-05-12T09:58:04.062Z,20.20
2019-05-12T10:00:36.045Z,19.20
2019-05-12T10:03:08.558Z,20.20
2019-05-12T10:08:06.385Z,19.70
2019-05-12T10:10:40.055Z,19.50
2019-05-12T10:13:05.370Z,19.80
2019-05-12T10:15:33.847Z,20.20
2019-05-12T10:18:08.964Z,20.00
2019-05-12T10:23:04.364Z,19.20
2019-05-12T10:33:03.771Z,20.00
2019-05-12T10:35:35.044Z,19.90
2019-05-12T10:40:33.831Z,19.70
2019-05-12T10:48:03.790Z,20.20
2019-05-12T10:50:34.328Z,19.90
2019-05-12T10:53:04.625Z,20.20
2019-05-12T10:55:34.045Z,19.90
2019-05-12T11:03:10.195Z,19.50
2019-05-12T11:05:34.124Z,19.20
2019-05-12T11:08:11.078Z,19.60
2019-05-12T11:13:08.459Z,19.60
2019-05-12T11:15:34.677Z,19.80
2019-05-12T11:18:07.005Z,19.80
2019-05-12T11:20:35.440Z,20.20
2019-05-12T11:28:07.081Z,19.50
2019-05-12T11:30:35.558Z,19.50
2019-05-12T11:33:04.896Z,19.60
2019-05-12T11:35:34.842Z,19.90
2019-05-12T11:38:04.417Z,19.30
2019-05-12T11:40:34.957Z,20.10
2019-05-12T11:43:04.927Z,19.80
2019-05-12T11:45:33.815Z,19.80
2019-05-12T11:48:08.401Z,20.00
2019-05-12T11:50:34.923Z,19.10
2019-05-12T11:53:04.409Z,20.10
2019-05-12T11:55:35.008Z,19.80
2019-05-12T11:58:11.285Z,20.30
2019-05-12T12:00:36.709Z,19.70
2019-05-12T12:03:12.504Z,19.90
2019-05-12T12:05:38.114Z,19.70
2019-05-12T12:10:37.606Z,19.70
2019-05-12T12:13:04.405Z,19.70
2019-05-12T12:15:34.536Z,19.50
2019-05-12T12:18:12.402Z,19.50
2019-05-12T12:23:11.108Z,19.20
2019-05-12T12:30:34.349Z,20.00
2019-05-12T12:33:04.429Z,19.90
2019-05-12T12:38:04.647Z,19.50
2019-05-12T12:40:34.476Z,19.80
2019-05-12T12:43:03.780Z,19.10
2019-05-12T12:45:40.708Z,19.00
2019-05-12T12:50:37.799Z,19.50
2019-05-12T12:53:06.507Z,20.00
2019-05-12T12:55:37.959Z,19.80
2019-05-12T12:58:05.463Z,19.40
2019-05-12T13:00:46.620Z,19.90
2019-05-12T13:03:04.440Z,20.10
2019-05-12T13:08:04.256Z,19.90
2019-05-12T13:10:33.673Z,19.00
2019-05-12T13:13:04.177Z,20.00
2019-05-12T13:15:33.947Z,19.40
2019-05-12T13:18:03.500Z,19.90
2019-05-12T13:20:34.261Z,19.60
2019-05-12T13:23:04.164Z,19.80
2019-05-12T13:30:45.076Z,19.20
2019-05-12T13:33:03.540Z,19.00
2019-05-12T13:35:34.229Z,19.20
2019-05-12T13:38:03.207Z,19.00
2019-05-12T13:53:01.136Z,19.70
2019-05-12T13:57:57.844Z,19.80
2019-05-12T14:00:26.756Z,19.00
2019-05-12T14:03:03.457Z,19.60
2019-05-12T14:05:25.401Z,19.30
2019-05-12T14:07:55.765Z,19.70
2019-05-12T14:12:54.398Z,19.10
2019-05-12T14:15:24.890Z,19.80
2019-05-12T14:17:54.094Z,19.30
2019-05-12T14:20:23.923Z,19.00
2019-05-12T14:22:53.954Z,19.50
2019-05-12T14:25:29.939Z,19.80
2019-05-12T14:27:53.603Z,19.00
2019-05-12T14:30:24.595Z,19.70
2019-05-12T14:32:55.205Z,19.20
2019-05-12T14:35:24.057Z,19.60
2019-05-12T14:37:54.162Z,19.50
2019-05-12T14:42:54.370Z,19.80
2019-05-12T14:45:27.809Z,19.60
2019-05-12T14:47:54.054Z,19.10
2019-05-12T14:50:23.135Z,19.60
2019-05-12T14:52:57.810Z,20.00
2019-05-12T15:02:48.969Z,19.00
2019-05-12T15:05:17.728Z,19.90
2019-05-12T15:07:50.924Z,19.60
2019-05-12T15:10:18.007Z,19.60
2019-05-12T15:12:46.432Z,19.10
2019-05-12T15:15:20.595Z,19.60
2019-05-12T15:17:47.489Z,19.30
2019-05-12T15:20:16.499Z,18.90
2019-05-12T15:22:51.840Z,19.10
2019-05-12T15:25:15.972Z,19.80
2019-05-12T15:27:47.883Z,20.20
2019-05-12T15:30:22.391Z,19.60
2019-05-12T15:32:45.165Z,19.80
2019-05-12T15:35:14.669Z,19.20
2019-05-12T15:37:43.788Z,19.20
2019-05-12T15:40:14.676Z,19.90
2019-05-12T15:42:46.934Z,19.70
2019-05-12T15:45:16.978Z,19.10
2019-05-12T15:47:45.935Z,19.10
2019-05-12T15:50:15.227Z,19.10
2019-05-12T15:52:45.636Z,19.70
2019-05-12T15:57:45.301Z,19.30
2019-05-12T16:00:17.087Z,19.40
2019-05-12T16:02:45.672Z,19.60
2019-05-12T16:05:20.021Z,20.10
2019-05-12T16:07:47.835Z,19.70
2019-05-12T16:12:45.953Z,19.20
2019-05-12T16:15:19.438Z,19.70
2019-05-12T16:17:45.440Z,19.10
2019-05-12T16:22:45.105Z,19.40
2019-05-12T16:25:15.651Z,19.40
2019-05-12T16:27:44.566Z,19.80
2019-05-12T16:30:14.640Z,19.10
2019-05-12T16:35:14.374Z,19.20
2019-05-12T16:37:44.900Z,19.70
2019-05-12T16:40:14.641Z,19.30
2019-05-12T16:42:49.714Z,19.50
2019-05-12T16:47:44.705Z,19.90
2019-05-12T16:50:24.044Z,19.10
2019-05-12T16:52:45.943Z,19.10
2019-05-12T16:57:51.203Z,19.90
2019-05-12T17:00:14.766Z,20.10
2019-05-12T17:02:52.443Z,19.20
2019-05-12T17:07:45.226Z,19.40
2019-05-12T17:10:17.028Z,20.00
2019-05-12T17:12:48.414Z,19.80
2019-05-12T17:15:16.014Z,19.80
2019-05-12T17:17:45.035Z,20.10
2019-05-12T17:20:15.072Z,20.10
2019-05-12T17:25:15.380Z,19.60
2019-05-12T17:27:45.062Z,19.10
2019-05-12T17:30:15.356Z,20.00
2019-05-12T17:40:19.914Z,19.60
2019-05-12T17:42:46.072Z,20.20
2019-05-12T17:45:20.337Z,19.70
2019-05-12T17:47:47.054Z,19.50
2019-05-12T17:50:16.038Z,20.20
2019-05-12T17:55:15.072Z,20.60
2019-05-12T17:57:44.315Z,20.40
2019-05-12T18:00:15.583Z,20.50
2019-05-12T18:02:49.052Z,20.60
2019-05-12T18:05:16.027Z,19.70
2019-05-12T18:07:50.827Z,20.00
2019-05-12T18:10:16.690Z,19.90
2019-05-12T18:12:46.008Z,20.20
2019-05-12T18:15:15.723Z,19.80
2019-05-12T18:17:49.660Z,20.80
2019-05-12T18:20:15.404Z,20.00
2019-05-12T18:22:46.952Z,20.00
2019-05-12T18:45:17.345Z,21.10
2019-05-12T18:52:45.575Z,20.90
2019-05-12T18:55:14.094Z,20.80
2019-05-12T19:02:46.396Z,21.60
2019-05-12T19:10:14.592Z,21.00
2019-05-12T19:15:21.719Z,21.60
2019-05-12T19:17:46.175Z,20.50
2019-05-12T19:30:19.283Z,21.00
2019-05-12T19:32:46.659Z,22.10
2019-05-12T19:35:20.101Z,21.00
2019-05-12T19:37:45.519Z,20.90
2019-05-12T19:42:44.934Z,21.10
2019-05-12T19:52:44.004Z,21.10
2019-05-12T19:55:14.032Z,22.10
2019-05-12T19:57:44.245Z,22.20
2019-05-12T20:07:44.652Z,22.00
2019-05-12T20:10:16.607Z,21.60
2019-05-12T20:15:15.394Z,21.10
2019-05-12T20:20:17.898Z,21.30
2019-05-12T20:22:45.258Z,21.50
2019-05-12T20:25:14.643Z,21.70
2019-05-12T20:32:46.256Z,21.90
2019-05-12T20:37:52.799Z,21.50
2019-05-12T20:40:14.983Z,22.20
2019-05-12T20:47:44.946Z,22.10
2019-05-12T20:50:14.866Z,21.90
2019-05-12T20:52:49.452Z,21.70
2019-05-12T20:55:14.648Z,21.70
2019-05-12T20:57:51.935Z,21.20
2019-05-12T21:00:15.575Z,21.80
2019-05-12T21:02:44.417Z,21.60
2019-05-12T21:07:44.239Z,22.10
2019-05-12T21:10:14.863Z,21.20
2019-05-12T21:12:48.810Z,21.50
2019-05-12T21:15:20.152Z,22.40
2019-05-12T21:17:52.291Z,22.40
2019-05-12T21:20:17.078Z,22.10
2019-05-12T21:25:14.383Z,22.30
2019-05-12T21:27:46.939Z,22.30
2019-05-12T21:30:15.130Z,21.60
2019-05-12T21:32:47.112Z,22.10
2019-05-12T21:35:21.923Z,22.40
2019-05-12T21:37:46.356Z,22.40
2019-05-12T21:40:15.488Z,22.50
2019-05-12T21:42:44.673Z,21.70
2019-05-12T21:47:44.454Z,22.60
2019-05-12T21:50:14.208Z,22.30
2019-05-12T21:52:44.611Z,21.60
2019-05-12T21:55:21.844Z,21.90
2019-05-12T22:00:34.653Z,22.10
2019-05-12T22:05:50.037Z,21.90
2019-05-12T22:08:06.420Z,22.60
2019-05-12T22:13:07.402Z,22.90
2019-05-12T22:15:34.944Z,22.10
2019-05-12T22:18:04.625Z,22.60
2019-05-12T22:20:35.695Z,21.80
2019-05-12T22:25:34.799Z,22.00
2019-05-12T22:28:09.877Z,22.10
2019-05-12T22:30:35.963Z,22.50
2019-05-12T22:33:10.468Z,22.00
2019-05-12T22:35:34.735Z,22.70
2019-05-12T22:38:15.388Z,22.30
2019-05-12T22:43:04.557Z,22.30
2019-05-12T22:48:04.218Z,22.60
2019-05-12T22:50:35.132Z,22.50
2019-05-12T22:53:04.513Z,22.50
2019-05-12T22:55:36.056Z,22.60
2019-05-12T22:58:04.721Z,21.80
2019-05-12T23:05:34.145Z,22.10
2019-05-12T23:08:06.249Z,22.40
2019-05-12T23:10:32.779Z,22.30
2019-05-12T23:13:02.019Z,22.40
2019-05-12T23:15:33.381Z,21.80
2019-05-12T23:18:04.050Z,22.40
2019-05-12T23:20:33.348Z,21.60
2019-05-12T23:23:03.965Z,22.40
2019-05-12T23:25:33.588Z,22.50
2019-05-12T23:28:06.742Z,22.40
2019-05-12T23:30:33.175Z,22.40
2019-05-12T23:33:03.809Z,22.10
2019-05-12T23:38:04.177Z,21.50
2019-05-12T23:40:34.270Z,21.60
2019-05-12T23:43:04.124Z,21.50
2019-05-12T23:45:33.883Z,21.50
2019-05-12T23:50:33.543Z,22.50
2019-05-12T23:53:03.738Z,21.90
2019-05-12T23:55:35.035Z,22.50
2019-05-12T23:58:04.289Z,21.80
